Time;durP1;ratioP1;P1;durP2;ratioP2;P2;SDS_P1;SDS_P2;PMS_P1;PMS_P2;Temp;Humidity;BMP_temperature;BMP_pressure;BME280_temperature;BME280_humidity;BME280_pressure;Samples;Min_cycle;Max_cycle;Signal;HPM_P1;HPM_P2
2021/12/25 00:01:09;;;;;;;19.08;10.48;;;;;;;;;;5071761;28;20036;-67
2021/12/25 00:03:35;;;;;;;19.25;9.90;;;;;;;;;;5071113;28;20059;-67
2021/12/25 00:06:01;;;;;;;20.08;10.27;;;;;;;;;;5067185;28;20029;-67
2021/12/25 00:08:29;;;;;;;20.63;10.68;;;;;;;;;;5072062;28;20047;-68
2021/12/25 00:10:56;;;;;;;18.30;10.05;;;;;;;;;;5069967;28;20110;-68
2021/12/25 00:13:22;;;;;;;18.08;9.90;;;;;;;;;;5073013;28;20147;-68
2021/12/25 00:15:48;;;;;;;20.67;9.65;;;;;;;;;;5066642;28;20116;-68
2021/12/25 00:18:14;;;;;;;21.35;10.27;;;;;;;;;;5071400;28;20025;-67
2021/12/25 00:20:40;;;;;;;20.77;10.27;;;;;;;;;;5069184;28;20656;-67
2021/12/25 00:23:07;;;;;;;22.00;10.27;;;;;;;;;;5072411;28;20069;-67
2021/12/25 00:25:37;;;;;;;18.73;10.07;;;;;;;;;;5071250;28;20035;-67
2021/12/25 00:28:46;;;;;;;18.98;9.95;;;;;;;;;;5071765;28;20482;-67
2021/12/25 00:36:11;;;;;;;20.05;9.75;;;;;;;;;;5071448;28;20123;-67
2021/12/25 00:38:37;;;;;;;19.95;10.13;;;;;;;;;;5066974;28;20044;-67
2021/12/25 00:41:06;;;;;;;19.45;10.35;;;;;;;;;;5059421;28;20032;-67
2021/12/25 00:43:31;;;;;;;19.98;10.43;;;;;;;;;;5071008;28;20029;-67
2021/12/25 00:45:57;;;;;;;20.45;10.93;;;;;;;;;;5066861;28;20047;-67
2021/12/25 00:48:22;;;;;;;20.95;11.35;;;;;;;;;;5071033;28;20025;-67
2021/12/25 00:50:48;;;;;;;21.88;11.43;;;;;;;;;;5069632;28;20028;-67
2021/12/25 00:53:13;;;;;;;21.17;12.05;;;;;;;;;;5072393;28;20057;-67
2021/12/25 00:55:39;;;;;;;22.48;11.85;;;;;;;;;;5068769;28;20381;-67
2021/12/25 00:58:04;;;;;;;24.05;12.25;;;;;;;;;;5056885;28;20473;-67
2021/12/25 01:00:30;;;;;;;24.92;12.57;;;;;;;;;;5062719;28;20032;-68
2021/12/25 01:02:55;;;;;;;24.50;13.52;;;;;;;;;;5070993;28;20036;-67
2021/12/25 01:05:21;;;;;;;23.92;12.73;;;;;;;;;;5070884;28;20040;-68
2021/12/25 01:07:46;;;;;;;24.25;12.55;;;;;;;;;;5068880;28;20041;-67
2021/12/25 01:10:17;;;;;;;26.10;13.43;;;;;;;;;;5069795;28;20032;-67
2021/12/25 01:16:13;;;;;;;25.13;13.18;;;;;;;;;;5071265;28;20067;-69
2021/12/25 01:31:21;;;;;;;25.73;12.75;;;;;;;;;;5071164;28;19935;-66
2021/12/25 01:41:43;;;;;;;26.65;14.15;;;;;;;;;;5070762;28;20036;-66
2021/12/25 01:47:47;;;;;;;29.58;14.82;;;;;;;;;;5065497;28;20058;-67
2021/12/25 01:49:55;;;;;;;;;;;;;;;;;;5050928;28;20033;-66
2021/12/25 01:52:26;;;;;;;27.17;12.65;;;;;;;;;;5069997;28;20396;-67
2021/12/25 01:54:53;;;;;;;24.88;12.32;;;;;;;;;;5068870;28;20032;-68
2021/12/25 01:57:19;;;;;;;26.08;13.45;;;;;;;;;;5070643;28;20039;-67
2021/12/25 01:59:45;;;;;;;28.58;14.05;;;;;;;;;;5074132;28;20460;-67
2021/12/25 02:02:10;;;;;;;28.25;14.40;;;;;;;;;;5059482;28;20043;-67
2021/12/25 02:04:35;;;;;;;30.30;14.48;;;;;;;;;;5066784;28;20040;-67
2021/12/25 02:07:01;;;;;;;31.10;14.98;;;;;;;;;;5071385;28;20370;-68
2021/12/25 02:09:27;;;;;;;30.33;14.70;;;;;;;;;;5073174;28;20477;-68
2021/12/25 02:11:53;;;;;;;27.88;14.43;;;;;;;;;;5071030;28;20305;-66
2021/12/25 02:14:18;;;;;;;27.10;13.30;;;;;;;;;;5073476;28;20437;-68
2021/12/25 02:16:55;;;;;;;22.75;12.30;;;;;;;;;;5073796;28;20029;-68
2021/12/25 02:19:34;;;;;;;27.27;13.38;;;;;;;;;;5073217;28;20041;-68
2021/12/25 02:22:02;;;;;;;25.80;12.85;;;;;;;;;;5073073;28;20024;-67
2021/12/25 02:24:27;;;;;;;23.75;12.25;;;;;;;;;;5074648;28;20462;-68
2021/12/25 02:26:53;;;;;;;24.27;12.57;;;;;;;;;;5073356;28;20036;-68
2021/12/25 02:29:18;;;;;;;28.33;13.32;;;;;;;;;;5074973;28;20186;-68
2021/12/25 02:31:44;;;;;;;24.67;12.65;;;;;;;;;;5071502;28;20430;-69
2021/12/25 02:34:09;;;;;;;26.15;12.55;;;;;;;;;;5073463;28;20599;-68
2021/12/25 02:36:35;;;;;;;30.20;13.73;;;;;;;;;;5070923;28;20127;-69
2021/12/25 02:39:01;;;;;;;27.63;13.30;;;;;;;;;;5074220;28;20028;-68
2021/12/25 02:41:26;;;;;;;27.00;13.05;;;;;;;;;;5073209;28;20039;-68
2021/12/25 02:43:52;;;;;;;26.45;13.35;;;;;;;;;;5073920;28;20028;-68
2021/12/25 02:46:17;;;;;;;26.35;13.52;;;;;;;;;;5070385;28;20048;-68
2021/12/25 02:48:43;;;;;;;26.10;12.63;;;;;;;;;;5074077;28;20059;-69
2021/12/25 02:51:10;;;;;;;27.52;12.63;;;;;;;;;;5072214;28;20094;-70
2021/12/25 02:53:37;;;;;;;26.63;12.70;;;;;;;;;;5072274;28;20044;-69
2021/12/25 02:56:04;;;;;;;27.42;12.75;;;;;;;;;;5063581;28;20035;-68
2021/12/25 02:58:30;;;;;;;26.98;12.18;;;;;;;;;;5054248;28;20037;-68
2021/12/25 03:01:03;;;;;;;28.27;15.07;;;;;;;;;;5072322;28;20139;-68
2021/12/25 03:03:28;;;;;;;28.95;13.35;;;;;;;;;;5073676;28;20041;-67
2021/12/25 03:05:54;;;;;;;29.45;14.15;;;;;;;;;;5071231;28;20028;-68
2021/12/25 03:08:19;;;;;;;30.35;14.27;;;;;;;;;;5072500;28;20094;-67
2021/12/25 03:10:45;;;;;;;27.48;14.18;;;;;;;;;;5071748;28;20032;-67
2021/12/25 03:15:46;;;;;;;28.05;14.02;;;;;;;;;;5057228;28;20032;-68
2021/12/25 03:18:23;;;;;;;27.55;13.70;;;;;;;;;;5073937;28;20398;-67
2021/12/25 03:20:52;;;;;;;27.60;13.55;;;;;;;;;;5072505;28;20398;-67
2021/12/25 03:23:20;;;;;;;25.65;13.35;;;;;;;;;;5071602;28;20040;-67
2021/12/25 03:25:47;;;;;;;26.10;12.98;;;;;;;;;;5072319;28;20032;-67
2021/12/25 03:28:14;;;;;;;29.30;13.23;;;;;;;;;;5072843;28;20467;-67
2021/12/25 03:30:39;;;;;;;26.17;13.52;;;;;;;;;;5069061;28;20036;-67
2021/12/25 03:33:08;;;;;;;26.75;13.95;;;;;;;;;;5073050;28;20042;-67
2021/12/25 03:35:34;;;;;;;28.05;13.38;;;;;;;;;;5071677;28;20037;-67
2021/12/25 03:38:04;;;;;;;27.23;13.32;;;;;;;;;;5071034;28;20037;-67
2021/12/25 03:40:30;;;;;;;28.60;13.93;;;;;;;;;;5072980;28;20033;-67
2021/12/25 03:42:56;;;;;;;26.40;12.98;;;;;;;;;;5072047;28;20028;-67
2021/12/25 03:45:22;;;;;;;29.05;13.80;;;;;;;;;;5071357;28;20036;-67
2021/12/25 03:47:50;;;;;;;25.17;12.70;;;;;;;;;;5069671;28;20032;-67
2021/12/25 03:58:21;;;;;;;23.85;11.68;;;;;;;;;;5072377;28;20051;-68
2021/12/25 04:00:48;;;;;;;18.90;10.57;;;;;;;;;;5070065;28;20090;-67
2021/12/25 04:04:04;;;;;;;20.80;10.73;;;;;;;;;;5073037;28;20028;-67
2021/12/25 04:06:07;;;;;;;21.27;10.88;;;;;;;;;;5069321;28;20064;-68
2021/12/25 04:08:40;;;;;;;18.83;10.30;;;;;;;;;;5072284;28;20028;-67
2021/12/25 04:11:12;;;;;;;23.65;11.43;;;;;;;;;;5071601;28;20501;-68
2021/12/25 04:13:37;;;;;;;20.38;10.52;;;;;;;;;;5070738;28;20147;-67
2021/12/25 04:16:03;;;;;;;20.50;10.52;;;;;;;;;;5071020;28;20104;-67
2021/12/25 04:18:28;;;;;;;22.52;11.15;;;;;;;;;;5073267;28;20054;-66
2021/12/25 04:20:54;;;;;;;22.02;10.73;;;;;;;;;;5067420;28;20056;-67
2021/12/25 04:23:24;;;;;;;22.98;11.65;;;;;;;;;;5071941;28;20037;-67
2021/12/25 04:25:49;;;;;;;22.25;11.80;;;;;;;;;;5070969;28;20029;-67
2021/12/25 04:28:28;;;;;;;24.02;10.98;;;;;;;;;;5072884;28;20026;-66
2021/12/25 04:50:25;;;;;;;16.58;8.13;;;;;;;;;;5071602;28;20296;-65
2021/12/25 05:03:52;;;;;;;17.13;8.25;;;;;;;;;;5051447;28;20044;-64
2021/12/25 05:06:17;;;;;;;15.88;8.02;;;;;;;;;;5060168;28;20116;-64
2021/12/25 05:08:43;;;;;;;18.35;8.30;;;;;;;;;;5071833;28;20064;-71
2021/12/25 05:11:08;;;;;;;17.27;8.27;;;;;;;;;;5071163;28;20090;-64
2021/12/25 05:13:35;;;;;;;19.95;10.43;;;;;;;;;;5069845;28;20078;-63
2021/12/25 05:16:02;;;;;;;15.18;7.63;;;;;;;;;;5070609;28;20028;-63
2021/12/25 05:18:28;;;;;;;14.00;7.68;;;;;;;;;;5071016;28;20115;-63
2021/12/25 05:20:54;;;;;;;14.13;7.47;;;;;;;;;;5068687;28;20036;-64
2021/12/25 05:23:19;;;;;;;14.90;7.15;;;;;;;;;;5071970;28;20029;-63
2021/12/25 05:25:44;;;;;;;10.13;6.18;;;;;;;;;;5067830;28;20037;-64
2021/12/25 05:28:12;;;;;;;14.80;6.57;;;;;;;;;;5072211;28;20078;-63
2021/12/25 05:30:37;;;;;;;14.18;6.45;;;;;;;;;;5071012;28;20409;-63
2021/12/25 05:33:03;;;;;;;9.57;5.60;;;;;;;;;;5074055;28;20585;-64
2021/12/25 05:35:28;;;;;;;13.07;6.55;;;;;;;;;;5073869;28;20033;-63
2021/12/25 05:37:58;;;;;;;12.20;6.47;;;;;;;;;;5073963;28;20355;-63
2021/12/25 05:40:24;;;;;;;12.15;6.55;;;;;;;;;;5074083;28;20060;-63
2021/12/25 05:42:50;;;;;;;12.70;6.82;;;;;;;;;;5075295;28;20029;-63
2021/12/25 05:45:15;;;;;;;14.05;6.60;;;;;;;;;;5073133;28;20033;-64
2021/12/25 05:47:41;;;;;;;14.52;6.72;;;;;;;;;;5071259;28;20025;-63
2021/12/25 05:50:07;;;;;;;11.38;6.03;;;;;;;;;;5073545;28;20074;-63
2021/12/25 05:52:32;;;;;;;12.32;5.85;;;;;;;;;;5075827;28;20031;-63
2021/12/25 05:54:57;;;;;;;11.50;5.95;;;;;;;;;;5072040;28;20069;-64
2021/12/25 05:57:23;;;;;;;10.40;5.88;;;;;;;;;;5076159;28;20078;-63
2021/12/25 05:59:48;;;;;;;11.48;5.72;;;;;;;;;;5075269;28;20028;-63
2021/12/25 06:02:14;;;;;;;10.52;5.78;;;;;;;;;;5074454;28;20386;-62
2021/12/25 06:04:39;;;;;;;11.05;5.93;;;;;;;;;;5075277;28;20036;-63
2021/12/25 06:07:04;;;;;;;10.55;5.55;;;;;;;;;;5072885;28;20565;-63
2021/12/25 06:09:30;;;;;;;12.77;6.10;;;;;;;;;;5075565;28;20111;-63
2021/12/25 06:11:55;;;;;;;11.05;6.03;;;;;;;;;;5072932;28;20033;-64
2021/12/25 06:14:21;;;;;;;12.13;6.00;;;;;;;;;;5074841;28;20066;-64
2021/12/25 06:16:49;;;;;;;8.65;4.93;;;;;;;;;;5072670;28;20123;-67
2021/12/25 06:19:15;;;;;;;12.77;5.88;;;;;;;;;;5072432;28;20040;-64
2021/12/25 06:21:40;;;;;;;10.32;5.72;;;;;;;;;;5074268;28;20029;-63
2021/12/25 06:24:06;;;;;;;9.82;5.65;;;;;;;;;;5073646;28;20385;-63
2021/12/25 06:26:32;;;;;;;10.55;6.00;;;;;;;;;;5073914;28;20032;-63
2021/12/25 06:28:58;;;;;;;11.90;6.25;;;;;;;;;;5074606;28;20032;-63
2021/12/25 06:31:24;;;;;;;13.65;6.03;;;;;;;;;;5074443;28;20032;-63
2021/12/25 06:33:50;;;;;;;11.25;5.97;;;;;;;;;;5074455;28;20033;-64
2021/12/25 06:36:15;;;;;;;12.43;6.30;;;;;;;;;;5070558;28;20385;-63
2021/12/25 06:38:41;;;;;;;11.73;6.10;;;;;;;;;;5074362;28;20565;-63
2021/12/25 06:41:08;;;;;;;10.25;5.95;;;;;;;;;;5072224;28;20039;-63
2021/12/25 06:43:34;;;;;;;9.30;5.45;;;;;;;;;;5073798;28;20481;-63
2021/12/25 06:46:00;;;;;;;12.00;6.63;;;;;;;;;;5069063;28;20033;-64
2021/12/25 06:48:26;;;;;;;13.93;6.35;;;;;;;;;;5072966;28;20093;-63
2021/12/25 06:50:52;;;;;;;11.65;6.57;;;;;;;;;;5072435;28;20032;-63
2021/12/25 06:53:18;;;;;;;11.40;6.00;;;;;;;;;;5073890;28;20465;-63
2021/12/25 06:55:43;;;;;;;12.00;6.80;;;;;;;;;;5072470;28;20105;-63
2021/12/25 06:58:09;;;;;;;11.65;6.32;;;;;;;;;;5073381;28;20335;-63
2021/12/25 07:00:34;;;;;;;12.40;6.28;;;;;;;;;;5072353;28;20078;-64
2021/12/25 07:02:59;;;;;;;11.35;6.40;;;;;;;;;;5073903;28;20351;-64
2021/12/25 07:05:25;;;;;;;12.18;6.57;;;;;;;;;;5073789;28;20372;-63
2021/12/25 07:07:51;;;;;;;11.40;6.00;;;;;;;;;;5071660;28;20032;-65
2021/12/25 07:10:17;;;;;;;12.02;6.25;;;;;;;;;;5072532;28;20047;-64
2021/12/25 07:12:46;;;;;;;11.93;6.47;;;;;;;;;;5070332;28;20041;-64
2021/12/25 07:15:12;;;;;;;11.85;6.30;;;;;;;;;;5072359;28;20028;-63
2021/12/25 07:17:38;;;;;;;11.77;6.57;;;;;;;;;;5071922;28;20107;-63
2021/12/25 07:20:04;;;;;;;12.73;6.40;;;;;;;;;;5072250;28;20111;-64
2021/12/25 07:22:30;;;;;;;11.52;6.55;;;;;;;;;;5072521;28;20064;-63
2021/12/25 07:24:55;;;;;;;12.93;6.70;;;;;;;;;;5071159;28;20110;-64
2021/12/25 07:27:21;;;;;;;11.43;6.45;;;;;;;;;;5071292;28;20037;-64
2021/12/25 07:29:47;;;;;;;11.70;6.38;;;;;;;;;;5072217;28;20036;-64
2021/12/25 07:32:12;;;;;;;12.18;6.65;;;;;;;;;;5072492;28;20042;-63
2021/12/25 07:34:40;;;;;;;10.60;6.15;;;;;;;;;;5071059;28;20037;-63
2021/12/25 07:37:06;;;;;;;9.75;5.68;;;;;;;;;;5072363;28;20025;-64
2021/12/25 07:39:31;;;;;;;10.88;5.80;;;;;;;;;;5068763;28;20032;-63
2021/12/25 07:41:56;;;;;;;9.55;5.28;;;;;;;;;;5071169;28;20035;-64
2021/12/25 07:44:22;;;;;;;11.00;5.70;;;;;;;;;;5071063;28;20036;-63
2021/12/25 07:46:48;;;;;;;9.50;4.80;;;;;;;;;;5072351;28;20039;-63
2021/12/25 07:49:18;;;;;;;11.88;5.60;;;;;;;;;;5067531;28;20036;-63
2021/12/25 07:51:45;;;;;;;9.50;4.95;;;;;;;;;;5071613;28;20032;-63
2021/12/25 07:54:10;;;;;;;11.70;4.88;;;;;;;;;;5071857;28;20398;-63
2021/12/25 07:56:36;;;;;;;8.38;4.80;;;;;;;;;;5069552;28;20032;-63
2021/12/25 07:59:02;;;;;;;7.43;4.45;;;;;;;;;;5071025;28;20457;-63
2021/12/25 08:01:29;;;;;;;11.27;4.78;;;;;;;;;;5073373;28;20028;-63
2021/12/25 08:03:55;;;;;;;7.50;4.25;;;;;;;;;;5070513;28;20119;-64
2021/12/25 08:06:20;;;;;;;8.55;4.43;;;;;;;;;;5069098;28;21125;-64
2021/12/25 08:08:46;;;;;;;6.75;3.78;;;;;;;;;;5059116;28;20435;-63
2021/12/25 08:11:13;;;;;;;7.45;3.90;;;;;;;;;;5070474;28;20039;-63
2021/12/25 08:13:39;;;;;;;8.23;4.25;;;;;;;;;;5070551;28;20052;-62
2021/12/25 08:16:04;;;;;;;7.53;3.78;;;;;;;;;;5072455;28;20078;-64
2021/12/25 08:18:31;;;;;;;8.40;4.07;;;;;;;;;;5071496;28;20035;-64
2021/12/25 08:20:57;;;;;;;8.73;3.80;;;;;;;;;;5070602;28;20116;-63
2021/12/25 08:23:23;;;;;;;8.10;4.00;;;;;;;;;;5069981;28;20024;-63
2021/12/25 08:25:48;;;;;;;6.97;3.30;;;;;;;;;;5071023;28;20041;-63
2021/12/25 08:28:13;;;;;;;8.25;3.40;;;;;;;;;;5071732;28;20249;-63
2021/12/25 08:30:39;;;;;;;6.68;3.35;;;;;;;;;;5071921;28;20500;-63
2021/12/25 08:33:04;;;;;;;5.15;3.08;;;;;;;;;;5070317;28;20037;-63
2021/12/25 08:35:30;;;;;;;6.13;3.08;;;;;;;;;;5071357;28;20032;-63
2021/12/25 08:37:56;;;;;;;5.97;2.85;;;;;;;;;;5071056;28;20370;-67
2021/12/25 08:40:23;;;;;;;5.60;2.67;;;;;;;;;;5068814;28;20044;-63
2021/12/25 08:42:53;;;;;;;5.30;2.47;;;;;;;;;;5069877;28;20046;-62
2021/12/25 08:46:13;;;;;;;4.35;2.47;;;;;;;;;;5069890;28;20036;-62
2021/12/25 08:48:26;;;;;;;5.00;2.67;;;;;;;;;;5070899;28;20089;-63
2021/12/25 08:50:54;;;;;;;5.22;2.55;;;;;;;;;;5070703;28;20496;-63
2021/12/25 08:53:21;;;;;;;4.47;2.60;;;;;;;;;;5069117;28;20157;-64
2021/12/25 08:55:49;;;;;;;5.43;2.30;;;;;;;;;;5069635;28;20363;-63
2021/12/25 08:58:15;;;;;;;4.00;2.45;;;;;;;;;;5070301;28;21332;-63
2021/12/25 09:00:41;;;;;;;4.30;2.45;;;;;;;;;;5071156;28;20048;-63
2021/12/25 09:03:06;;;;;;;4.15;2.00;;;;;;;;;;5069466;28;20033;-62
2021/12/25 09:05:32;;;;;;;6.15;2.22;;;;;;;;;;5070077;28;20028;-62
2021/12/25 09:07:59;;;;;;;4.22;2.03;;;;;;;;;;5068725;28;20490;-68
2021/12/25 09:10:28;;;;;;;5.00;2.20;;;;;;;;;;5069188;28;20039;-63
2021/12/25 09:12:54;;;;;;;3.45;1.90;;;;;;;;;;5068702;28;20517;-63
2021/12/25 09:15:19;;;;;;;3.22;1.92;;;;;;;;;;5062494;28;20100;-63
2021/12/25 09:17:46;;;;;;;4.10;1.95;;;;;;;;;;5066930;28;20410;-63
2021/12/25 09:20:14;;;;;;;3.78;1.90;;;;;;;;;;5064342;28;20051;-63
2021/12/25 09:22:40;;;;;;;3.17;1.80;;;;;;;;;;5068141;28;20035;-63
2021/12/25 09:25:07;;;;;;;3.55;1.90;;;;;;;;;;5062720;28;20025;-64
2021/12/25 09:27:33;;;;;;;5.20;1.90;;;;;;;;;;5069960;28;20060;-64
2021/12/25 09:29:58;;;;;;;6.15;1.60;;;;;;;;;;5069790;28;20064;-68
2021/12/25 09:32:24;;;;;;;5.00;1.83;;;;;;;;;;5068584;28;20481;-63
2021/12/25 09:34:49;;;;;;;5.72;2.00;;;;;;;;;;5070263;28;20076;-62
2021/12/25 09:37:15;;;;;;;2.53;1.60;;;;;;;;;;5067974;28;20418;-63
2021/12/25 09:39:40;;;;;;;2.70;1.80;;;;;;;;;;5069994;28;20041;-63
2021/12/25 09:42:07;;;;;;;3.88;2.05;;;;;;;;;;5065607;28;20061;-63
2021/12/25 09:44:32;;;;;;;3.47;1.77;;;;;;;;;;5071157;28;20037;-63
2021/12/25 09:46:58;;;;;;;3.85;1.80;;;;;;;;;;5070052;28;20046;-62
2021/12/25 09:49:23;;;;;;;4.55;1.92;;;;;;;;;;5069287;28;20036;-63
2021/12/25 09:51:48;;;;;;;5.32;2.03;;;;;;;;;;5070031;28;20423;-63
2021/12/25 09:54:15;;;;;;;4.45;1.55;;;;;;;;;;5068991;28;20533;-63
2021/12/25 09:56:45;;;;;;;3.40;1.77;;;;;;;;;;5071276;28;20089;-63
2021/12/25 09:59:12;;;;;;;4.15;2.03;;;;;;;;;;5070129;28;20043;-63
2021/12/25 10:01:54;;;;;;;2.60;1.77;;;;;;;;;;5072264;28;20050;-63
2021/12/25 10:04:39;;;;;;;4.80;1.90;;;;;;;;;;5070653;28;20587;-63
2021/12/25 10:07:15;;;;;;;3.92;1.88;;;;;;;;;;5070306;28;20066;-64
2021/12/25 10:09:40;;;;;;;4.93;1.67;;;;;;;;;;5070035;28;20025;-63
2021/12/25 10:12:09;;;;;;;4.60;1.63;;;;;;;;;;5069298;28;20054;-63
2021/12/25 10:14:41;;;;;;;4.25;1.80;;;;;;;;;;5053032;28;20074;-63
2021/12/25 10:17:26;;;;;;;2.55;1.60;;;;;;;;;;5066102;28;20043;-63
2021/12/25 10:20:12;;;;;;;4.88;1.70;;;;;;;;;;5079161;28;20032;-63
2021/12/25 10:22:56;;;;;;;5.03;2.10;;;;;;;;;;5074339;28;20033;-63
2021/12/25 10:25:22;;;;;;;3.15;1.77;;;;;;;;;;5073106;28;20182;-63
2021/12/25 10:27:57;;;;;;;3.63;1.60;;;;;;;;;;5070965;28;20037;-64
2021/12/25 10:30:22;;;;;;;3.45;1.88;;;;;;;;;;5073869;28;20085;-63
2021/12/25 10:32:48;;;;;;;2.88;1.70;;;;;;;;;;5074073;28;20036;-62
2021/12/25 10:35:20;;;;;;;4.03;1.88;;;;;;;;;;5074188;28;20020;-64
2021/12/25 10:37:47;;;;;;;4.28;1.90;;;;;;;;;;5074837;28;20032;-62
2021/12/25 10:40:31;;;;;;;8.13;1.98;;;;;;;;;;5077031;28;20025;-63
2021/12/25 10:42:59;;;;;;;3.17;2.00;;;;;;;;;;5075519;28;20036;-63
2021/12/25 10:45:28;;;;;;;3.53;1.85;;;;;;;;;;5073543;28;20028;-63
2021/12/25 10:48:09;;;;;;;4.85;2.00;;;;;;;;;;5069297;28;20381;-63
2021/12/25 10:50:48;;;;;;;3.90;1.92;;;;;;;;;;5064504;28;20024;-63
2021/12/25 10:53:43;;;;;;;4.10;2.00;;;;;;;;;;5063572;28;20115;-63
2021/12/25 10:56:15;;;;;;;2.45;1.67;;;;;;;;;;5069002;28;20119;-63
2021/12/25 10:58:42;;;;;;;3.95;2.00;;;;;;;;;;5073593;28;20170;-63
2021/12/25 11:01:12;;;;;;;4.40;2.10;;;;;;;;;;5071907;28;20036;-66
2021/12/25 11:03:40;;;;;;;3.40;2.00;;;;;;;;;;5073835;28;20146;-62
2021/12/25 11:06:18;;;;;;;3.35;2.10;;;;;;;;;;5071275;28;20021;-67
2021/12/25 11:08:45;;;;;;;3.17;1.90;;;;;;;;;;5073764;28;20040;-63
2021/12/25 11:11:17;;;;;;;3.47;1.95;;;;;;;;;;5071857;28;20107;-62
2021/12/25 11:13:45;;;;;;;3.53;1.80;;;;;;;;;;5072930;28;20048;-61
2021/12/25 11:16:31;;;;;;;3.75;2.00;;;;;;;;;;5071593;28;20401;-63
2021/12/25 11:19:09;;;;;;;2.88;1.80;;;;;;;;;;5073488;28;20120;-62
2021/12/25 11:21:35;;;;;;;4.13;1.85;;;;;;;;;;5069084;28;20032;-63
2021/12/25 11:24:31;;;;;;;3.70;1.60;;;;;;;;;;5072152;28;20032;-63
2021/12/25 11:26:59;;;;;;;3.22;1.80;;;;;;;;;;5073332;28;20039;-63
2021/12/25 11:29:27;;;;;;;3.92;1.98;;;;;;;;;;5065236;28;20141;-63
2021/12/25 11:31:55;;;;;;;5.55;1.83;;;;;;;;;;5072821;28;20548;-62
2021/12/25 11:34:21;;;;;;;4.35;1.83;;;;;;;;;;5071682;28;20032;-64
2021/12/25 11:36:50;;;;;;;2.75;1.70;;;;;;;;;;5071605;28;20078;-64
2021/12/25 11:39:21;;;;;;;3.45;1.88;;;;;;;;;;5064373;28;20028;-63
2021/12/25 11:41:48;;;;;;;2.43;1.63;;;;;;;;;;5066773;28;20036;-62
2021/12/25 11:44:38;;;;;;;2.55;1.80;;;;;;;;;;5072119;28;20031;-64
2021/12/25 11:47:04;;;;;;;3.20;1.85;;;;;;;;;;5072691;28;20371;-63
2021/12/25 11:49:30;;;;;;;2.60;1.67;;;;;;;;;;5071887;28;20100;-64
2021/12/25 11:52:14;;;;;;;4.20;1.70;;;;;;;;;;5072369;28;20119;-63
2021/12/25 11:59:45;;;;;;;2.85;1.70;;;;;;;;;;5073291;28;20036;-63
2021/12/25 12:02:11;;;;;;;3.08;1.70;;;;;;;;;;5070152;28;20056;-68
2021/12/25 12:04:37;;;;;;;2.80;1.85;;;;;;;;;;5072608;28;20051;-63
2021/12/25 12:07:18;;;;;;;3.38;1.70;;;;;;;;;;5072420;28;20486;-64
2021/12/25 12:09:46;;;;;;;4.60;1.70;;;;;;;;;;5072648;28;20025;-63
2021/12/25 12:12:18;;;;;;;3.08;1.70;;;;;;;;;;5071397;28;20032;-64
2021/12/25 12:14:43;;;;;;;2.80;1.80;;;;;;;;;;5072489;28;20071;-63
2021/12/25 12:17:18;;;;;;;2.42;1.73;;;;;;;;;;5072330;28;20063;-68
2021/12/25 12:19:46;;;;;;;2.58;1.70;;;;;;;;;;5072187;28;20036;-63
2021/12/25 12:22:20;;;;;;;3.05;1.52;;;;;;;;;;5070124;28;20031;-64
2021/12/25 12:27:46;;;;;;;2.47;1.52;;;;;;;;;;5070841;28;20036;-64
2021/12/25 12:30:34;;;;;;;2.35;1.50;;;;;;;;;;5071147;28;20032;-69
2021/12/25 12:33:11;;;;;;;3.45;1.45;;;;;;;;;;5071843;28;20089;-63
2021/12/25 12:35:41;;;;;;;4.15;1.50;;;;;;;;;;5078719;28;20028;-63
2021/12/25 12:38:31;;;;;;;2.65;1.35;;;;;;;;;;5070302;28;20056;-63
2021/12/25 12:41:19;;;;;;;2.17;1.58;;;;;;;;;;5069935;28;20036;-64
2021/12/25 12:43:50;;;;;;;1.83;1.30;;;;;;;;;;5064316;28;20028;-63
2021/12/25 12:46:15;;;;;;;2.70;1.50;;;;;;;;;;5070959;28;20544;-63
2021/12/25 12:49:01;;;;;;;3.15;1.50;;;;;;;;;;5071809;28;20037;-64
2021/12/25 12:51:27;;;;;;;2.80;1.52;;;;;;;;;;5071275;28;20466;-63
2021/12/25 12:53:52;;;;;;;1.63;1.38;;;;;;;;;;5071565;28;20058;-63
2021/12/25 12:56:21;;;;;;;2.28;1.35;;;;;;;;;;5068813;28;20047;-64
2021/12/25 12:58:53;;;;;;;1.48;1.25;;;;;;;;;;5071502;28;20060;-63
2021/12/25 13:01:19;;;;;;;2.10;1.20;;;;;;;;;;5070877;28;20421;-63
2021/12/25 13:03:45;;;;;;;2.63;1.20;;;;;;;;;;5070206;28;20024;-64
2021/12/25 13:06:13;;;;;;;2.08;1.33;;;;;;;;;;5071018;28;20035;-66
2021/12/25 13:08:40;;;;;;;1.55;1.30;;;;;;;;;;5071793;28;20027;-63
2021/12/25 13:11:31;;;;;;;2.17;1.10;;;;;;;;;;5071501;28;20075;-63
2021/12/25 13:13:59;;;;;;;1.98;1.23;;;;;;;;;;5068469;28;20040;-63
2021/12/25 13:16:38;;;;;;;1.80;1.17;;;;;;;;;;5070448;28;20032;-64
2021/12/25 13:19:05;;;;;;;2.25;1.33;;;;;;;;;;5054843;28;20029;-64
2021/12/25 13:21:33;;;;;;;1.95;1.25;;;;;;;;;;5069315;28;20352;-64
2021/12/25 13:24:04;;;;;;;1.45;1.10;;;;;;;;;;5071335;28;20020;-63
2021/12/25 13:26:41;;;;;;;2.78;1.40;;;;;;;;;;5077831;28;20107;-63
2021/12/25 13:29:10;;;;;;;1.40;1.20;;;;;;;;;;5070253;28;20056;-63
2021/12/25 13:31:37;;;;;;;1.17;1.00;;;;;;;;;;5070808;28;20470;-63
2021/12/25 13:34:13;;;;;;;1.90;1.00;;;;;;;;;;5071015;28;20043;-63
2021/12/25 13:36:41;;;;;;;1.20;1.10;;;;;;;;;;5070536;28;20039;-63
2021/12/25 13:39:13;;;;;;;2.08;1.10;;;;;;;;;;5070844;28;20078;-63
2021/12/25 13:41:52;;;;;;;;;;;;;;;;;;5071040;28;20056;-62
2021/12/25 13:44:27;;;;;;;1.73;1.08;;;;;;;;;;5070361;28;19964;-63
2021/12/25 13:46:53;;;;;;;2.45;1.13;;;;;;;;;;5071358;28;20028;-63
2021/12/25 13:49:38;;;;;;;1.17;1.00;;;;;;;;;;5070215;28;20042;-64
2021/12/25 13:52:11;;;;;;;1.60;1.10;;;;;;;;;;5069084;28;20074;-63
2021/12/25 13:55:03;;;;;;;1.10;1.00;;;;;;;;;;5074211;28;20043;-64
2021/12/25 13:57:30;;;;;;;2.88;1.10;;;;;;;;;;5074023;28;20031;-63
2021/12/25 14:00:06;;;;;;;1.50;1.25;;;;;;;;;;5074681;28;20032;-64
2021/12/25 14:02:32;;;;;;;1.42;0.90;;;;;;;;;;5073169;28;20420;-63
2021/12/25 14:04:58;;;;;;;1.92;1.00;;;;;;;;;;5071380;28;20037;-63
2021/12/25 14:07:29;;;;;;;0.90;0.90;;;;;;;;;;5054128;28;20044;-63
2021/12/25 14:10:09;;;;;;;1.50;1.02;;;;;;;;;;5070584;28;20039;-63
2021/12/25 14:12:37;;;;;;;1.27;1.00;;;;;;;;;;5073141;28;20689;-63
2021/12/25 14:15:07;;;;;;;1.20;1.08;;;;;;;;;;5073759;28;20120;-64
2021/12/25 14:17:33;;;;;;;1.25;1.10;;;;;;;;;;5073813;28;20358;-63
2021/12/25 14:20:08;;;;;;;1.60;1.20;;;;;;;;;;5073086;28;20040;-65
2021/12/25 14:22:33;;;;;;;2.33;1.27;;;;;;;;;;5064906;28;20474;-64
2021/12/25 14:24:59;;;;;;;1.77;1.15;;;;;;;;;;5074674;28;20028;-63
2021/12/25 14:27:25;;;;;;;1.48;1.10;;;;;;;;;;5071665;28;20043;-63
2021/12/25 14:29:51;;;;;;;1.65;1.08;;;;;;;;;;5073471;28;20052;-63
2021/12/25 14:32:27;;;;;;;1.75;1.17;;;;;;;;;;5074195;28;20028;-68
2021/12/25 14:34:54;;;;;;;1.70;1.10;;;;;;;;;;5071783;28;20036;-63
2021/12/25 14:37:35;;;;;;;1.90;1.23;;;;;;;;;;5053004;28;20540;-65
2021/12/25 14:40:05;;;;;;;2.60;1.65;;;;;;;;;;5054512;28;20033;-63
2021/12/25 14:42:36;;;;;;;4.55;1.60;;;;;;;;;;5053410;28;20474;-63
2021/12/25 14:45:03;;;;;;;2.38;1.50;;;;;;;;;;5054066;28;20083;-63
2021/12/25 14:47:29;;;;;;;2.88;1.20;;;;;;;;;;5053040;28;20036;-63
2021/12/25 14:49:55;;;;;;;1.67;1.30;;;;;;;;;;5055189;28;20119;-63
2021/12/25 14:52:22;;;;;;;2.20;1.30;;;;;;;;;;5053004;28;20120;-67
2021/12/25 14:54:47;;;;;;;2.83;1.40;;;;;;;;;;5053020;28;20029;-62
2021/12/25 14:57:23;;;;;;;2.20;1.50;;;;;;;;;;5054362;28;20493;-63
2021/12/25 14:59:48;;;;;;;2.55;1.40;;;;;;;;;;5054532;28;20029;-63
2021/12/25 15:02:20;;;;;;;2.85;1.50;;;;;;;;;;5054408;28;20378;-63
2021/12/25 15:04:49;;;;;;;1.63;1.27;;;;;;;;;;5053286;28;20032;-63
2021/12/25 15:07:16;;;;;;;2.05;1.23;;;;;;;;;;5052543;28;20062;-63
2021/12/25 15:09:47;;;;;;;3.85;1.40;;;;;;;;;;5053235;28;20029;-63
2021/12/25 15:12:17;;;;;;;2.17;1.30;;;;;;;;;;5072411;28;20035;-62
2021/12/25 15:14:49;;;;;;;1.70;1.10;;;;;;;;;;5073409;28;20028;-63
2021/12/25 15:17:27;;;;;;;5.43;2.70;;;;;;;;;;5074164;28;20031;-63
2021/12/25 15:20:11;;;;;;;11.77;5.40;;;;;;;;;;5074498;28;20031;-63
2021/12/25 15:22:38;;;;;;;6.65;3.40;;;;;;;;;;5073652;28;20032;-64
2021/12/25 15:25:11;;;;;;;2.45;1.60;;;;;;;;;;5071642;28;20028;-64
2021/12/25 15:27:44;;;;;;;4.15;1.50;;;;;;;;;;5075169;28;20051;-63
2021/12/25 15:30:16;;;;;;;4.47;1.42;;;;;;;;;;5077138;28;20071;-64
2021/12/25 15:32:45;;;;;;;2.40;1.30;;;;;;;;;;5073614;28;20028;-64
2021/12/25 15:35:13;;;;;;;3.70;1.60;;;;;;;;;;5074021;28;20032;-63
2021/12/25 15:37:42;;;;;;;2.95;1.80;;;;;;;;;;5072865;28;20364;-64
2021/12/25 15:40:19;;;;;;;2.75;1.50;;;;;;;;;;5071683;28;20032;-64
2021/12/25 15:42:44;;;;;;;2.38;1.60;;;;;;;;;;5072364;28;20035;-64
2021/12/25 15:45:12;;;;;;;2.63;1.52;;;;;;;;;;5073350;28;20032;-63
2021/12/25 15:47:38;;;;;;;1.73;1.30;;;;;;;;;;5072105;28;20036;-63
2021/12/25 15:50:05;;;;;;;2.10;1.30;;;;;;;;;;5073228;28;20025;-62
2021/12/25 15:52:33;;;;;;;6.53;1.40;;;;;;;;;;5071169;28;20032;-64
2021/12/25 15:54:59;;;;;;;6.47;2.08;;;;;;;;;;5068984;28;20433;-63
2021/12/25 15:57:26;;;;;;;2.80;1.40;;;;;;;;;;5052373;28;20040;-65
2021/12/25 15:59:52;;;;;;;1.60;1.20;;;;;;;;;;5051414;28;20021;-63
2021/12/25 16:02:19;;;;;;;3.53;1.50;;;;;;;;;;5052694;28;20035;-63
2021/12/25 16:04:45;;;;;;;2.83;1.42;;;;;;;;;;5050568;28;20036;-64
2021/12/25 16:07:11;;;;;;;2.05;1.50;;;;;;;;;;5059216;28;20025;-64